Time;durP1;ratioP1;P1;durP2;ratioP2;P2;SDS_P1;SDS_P2;PMS_P1;PMS_P2;Temp;Humidity;BMP_temperature;BMP_pressure;BME280_temperature;BME280_humidity;BME280_pressure;Samples;Min_cycle;Max_cycle;Signal;HPM_P1;HPM_P2
2022/03/02 00:00:48;;;;;;;;;61.75;47.50;;;;;9.58;71.96;102221.13;5076743;27;45389;-67
2022/03/02 00:03:13;;;;;;;;;72.25;55.00;;;;;9.64;71.47;102223.78;5077296;27;45409;-65
2022/03/02 00:05:39;;;;;;;;;73.75;55.00;;;;;9.63;72.05;102224.69;5076114;27;45283;-66
2022/03/02 00:08:05;;;;;;;;;72.00;54.75;;;;;9.67;72.14;102229.09;5076546;28;46354;-65
2022/03/02 00:10:31;;;;;;;;;75.75;56.75;;;;;9.66;72.19;102227.31;5077348;27;45557;-65
2022/03/02 00:12:57;;;;;;;;;72.00;55.50;;;;;9.52;71.92;102205.31;5077112;27;45609;-65
2022/03/02 00:15:24;;;;;;;;;69.00;53.00;;;;;9.63;72.26;102221.16;5075891;27;47429;-65
2022/03/02 00:17:50;;;;;;;;;74.00;55.50;;;;;9.57;72.73;102216.75;5076946;27;45359;-65
2022/03/02 00:20:16;;;;;;;;;67.33;52.00;;;;;9.53;72.39;102217.63;5076640;27;45376;-65
2022/03/02 00:22:41;;;;;;;;;74.00;54.00;;;;;9.52;72.47;102219.34;5076529;28;45411;-65
2022/03/02 00:25:08;;;;;;;;;70.50;52.75;;;;;9.49;73.75;102214.06;5080080;28;46348;-65
2022/03/02 00:27:34;;;;;;;;;68.75;55.50;;;;;9.44;73.81;102212.28;5080207;27;45906;-65
2022/03/02 00:30:00;;;;;;;;;67.33;52.33;;;;;9.39;73.94;102215.75;5080155;27;45443;-66
2022/03/02 00:32:25;;;;;;;;;71.75;53.75;;;;;9.31;73.15;102200.81;5080355;27;45503;-66
2022/03/02 00:34:51;;;;;;;;;69.50;53.25;;;;;9.36;74.20;102202.59;5080328;27;45779;-66
2022/03/02 00:37:16;;;;;;;;;71.25;50.75;;;;;9.41;74.00;102208.78;5079849;27;45334;-66
2022/03/02 00:39:43;;;;;;;;;71.00;54.25;;;;;9.44;74.51;102210.56;5080296;28;45335;-66
2022/03/02 00:42:09;;;;;;;;;68.00;53.00;;;;;9.43;74.38;102208.78;5080437;27;45538;-66
2022/03/02 00:44:35;;;;;;;;;72.75;55.50;;;;;9.44;73.69;102199.13;5079322;27;47029;-66
2022/03/02 00:47:01;;;;;;;;;72.25;52.00;;;;;9.36;73.34;102186.81;5079451;27;45451;-66
2022/03/02 00:49:27;;;;;;;;;77.25;56.00;;;;;9.37;74.12;102193.84;5074103;28;45372;-66
2022/03/02 00:51:56;;;;;;;;;67.50;52.25;;;;;9.18;73.66;102165.72;5080040;27;45496;-66
2022/03/02 00:54:21;;;;;;;;;75.00;57.00;;;;;9.29;75.50;102189.44;5079809;27;47202;-66
2022/03/02 00:56:47;;;;;;;;;71.75;54.25;;;;;9.28;75.08;102182.41;5079661;28;45331;-66
2022/03/02 00:59:12;;;;;;;;;73.67;53.33;;;;;9.31;74.93;102193.81;5079923;27;45387;-66
2022/03/02 01:01:38;;;;;;;;;70.25;54.75;;;;;9.17;74.72;102156.06;5080360;27;45406;-66
2022/03/02 01:04:03;;;;;;;;;67.00;53.00;;;;;9.28;74.40;102178.03;5079131;27;46001;-66
2022/03/02 01:06:28;;;;;;;;;73.50;53.50;;;;;9.29;74.45;102186.78;5079601;28;45315;-66
2022/03/02 01:08:54;;;;;;;;;71.00;51.75;;;;;9.27;74.38;102181.53;5079460;28;45466;-66
2022/03/02 01:11:19;;;;;;;;;72.25;53.00;;;;;9.23;74.81;102171.88;5092701;27;45269;-66
2022/03/02 01:13:46;;;;;;;;;69.00;52.00;;;;;9.17;72.70;102172.72;5091358;27;46351;-66
2022/03/02 01:16:13;;;;;;;;;71.25;53.00;;;;;9.14;73.87;102170.06;5079622;27;45412;-66
2022/03/02 01:18:39;;;;;;;;;71.50;53.25;;;;;9.05;75.41;102163.00;5079594;27;45403;-66
2022/03/02 01:21:04;;;;;;;;;67.00;50.75;;;;;9.04;75.28;102163.00;5080019;27;45243;-66
2022/03/02 01:23:30;;;;;;;;;66.75;53.75;;;;;9.06;76.29;102171.75;5079716;28;46175;-66
2022/03/02 01:25:55;;;;;;;;;69.00;53.67;;;;;9.06;76.74;102166.50;5079671;27;45301;-66
2022/03/02 01:28:20;;;;;;;;;74.00;53.75;;;;;9.11;76.95;102170.06;5079652;27;45705;-66
2022/03/02 01:30:46;;;;;;;;;69.75;53.00;;;;;9.04;76.91;102157.75;5079761;27;45483;-66
2022/03/02 01:33:12;;;;;;;;;74.75;54.00;;;;;8.98;76.39;102136.69;5079129;28;45583;-66
2022/03/02 01:35:37;;;;;;;;;64.67;49.33;;;;;9.04;76.08;102141.97;5078008;27;45927;-66
2022/03/02 01:38:03;;;;;;;;;66.67;51.67;;;;;9.10;76.06;102149.03;5079634;27;45386;-66
2022/03/02 01:40:28;;;;;;;;;72.00;53.33;;;;;8.90;76.07;102112.97;5079813;27;45409;-66
2022/03/02 01:42:54;;;;;;;;;64.00;49.00;;;;;9.13;74.83;102142.03;5079100;27;46345;-66
2022/03/02 01:45:21;;;;;;;;;69.00;53.67;;;;;9.08;74.33;102138.50;5078932;27;45399;-66
2022/03/02 01:47:46;;;;;;;;;66.00;49.33;;;;;9.03;74.30;102134.94;5079398;27;45266;-66
2022/03/02 01:50:13;;;;;;;;;66.67;48.67;;;;;9.06;74.57;102142.84;5079723;27;45231;-66
2022/03/02 01:52:39;;;;;;;;;62.67;48.00;;;;;9.00;74.93;102142.81;5078905;27;46278;-66
2022/03/02 01:55:06;;;;;;;;;71.67;51.33;;;;;8.83;75.92;102114.72;5079095;27;45754;-66
2022/03/02 01:57:32;;;;;;;;;69.67;51.33;;;;;8.95;75.01;102127.03;5079343;27;45411;-66
2022/03/02 01:59:58;;;;;;;;;70.33;51.00;;;;;8.95;75.27;102127.03;5079109;27;45452;-66
2022/03/02 02:02:23;;;;;;;;;61.00;47.33;;;;;8.93;75.41;102126.16;5079170;27;45397;-66
2022/03/02 02:04:49;;;;;;;;;62.00;50.00;;;;;9.04;74.85;102131.47;5078773;27;45304;-66
2022/03/02 02:07:14;;;;;;;;;71.00;52.50;;;;;8.92;74.96;102106.00;5079427;28;45377;-66
2022/03/02 02:09:40;;;;;;;;;65.00;51.33;;;;;8.97;75.91;102122.66;5078381;28;45473;-66
2022/03/02 02:12:06;;;;;;;;;70.33;51.33;;;;;8.93;76.46;102114.75;5078637;27;46085;-66
2022/03/02 02:14:31;;;;;;;;;64.00;51.33;;;;;8.82;74.75;102091.94;5078674;27;45418;-66
2022/03/02 02:16:57;;;;;;;;;66.67;51.00;;;;;8.89;74.43;102106.84;5078794;28;45347;-66
2022/03/02 02:19:22;;;;;;;;;71.67;52.00;;;;;8.75;75.08;102086.63;5079216;27;45295;-66
2022/03/02 02:21:48;;;;;;;;;61.67;48.00;;;;;8.77;76.00;102090.13;5078558;27;45537;-66
2022/03/02 02:24:15;;;;;;;;;72.00;55.00;;;;;8.88;75.86;102106.84;5077405;27;45477;-66
2022/03/02 02:26:41;;;;;;;;;74.25;56.25;;;;;8.78;76.27;102092.78;5078255;27;45305;-66
2022/03/02 02:29:06;;;;;;;;;63.67;49.00;;;;;8.73;75.80;102083.09;5078537;27;45336;-66
2022/03/02 02:31:32;;;;;;;;;67.67;50.33;;;;;8.84;76.19;102099.81;5078437;27;45508;-66
2022/03/02 02:33:58;;;;;;;;;70.33;52.00;;;;;8.88;76.46;102109.47;5078426;27;45741;-65
2022/03/02 02:36:23;;;;;;;;;69.33;52.00;;;;;8.85;76.50;102102.44;5077400;28;45407;-66
2022/03/02 02:38:49;;;;;;;;;68.33;54.33;;;;;8.88;76.01;102099.84;5078648;27;45482;-66
2022/03/02 02:41:16;;;;;;;;;64.00;50.67;;;;;8.87;75.80;102097.19;5077833;27;46591;-66
2022/03/02 02:43:42;;;;;;;;;67.33;51.00;;;;;8.89;75.33;102098.09;5078421;28;45304;-66
2022/03/02 02:46:09;;;;;;;;;70.00;52.00;;;;;8.88;76.18;102099.84;5077882;27;45221;-66
2022/03/02 02:48:35;;;;;;;;;70.67;52.33;;;;;8.76;76.31;102077.88;5078432;27;45370;-66
2022/03/02 02:51:01;;;;;;;;;67.33;51.67;;;;;8.40;76.28;102019.88;5077977;27;48065;-66
2022/03/02 02:53:26;;;;;;;;;67.67;50.33;;;;;8.75;76.69;102086.63;5078113;27;45336;-66
2022/03/02 02:55:53;;;;;;;;;62.00;50.00;;;;;8.69;76.83;102076.97;5077948;27;45434;-66
2022/03/02 02:58:18;;;;;;;;;66.67;50.00;;;;;8.65;76.94;102085.69;5078345;27;45306;-66
2022/03/02 03:00:46;;;;;;;;;70.00;51.33;;;;;8.66;77.44;102080.44;5077607;28;45387;-66
2022/03/02 03:03:11;;;;;;;;;65.00;51.00;;;;;8.71;77.18;102076.13;5078182;27;45525;-66
2022/03/02 03:05:37;;;;;;;;;67.00;52.33;;;;;8.73;76.98;102077.84;5077671;27;45363;-66
2022/03/02 03:08:06;;;;;;;;;64.67;51.00;;;;;8.71;75.90;102089.25;5078442;27;45455;-66
2022/03/02 03:10:32;;;;;;;;;68.00;52.00;;;;;8.74;76.11;102090.13;5077990;28;45605;-66
2022/03/02 03:12:58;;;;;;;;;60.33;49.00;;;;;8.68;75.69;102072.56;5077800;28;45347;-66
2022/03/02 03:15:24;;;;;;;;;67.33;48.33;;;;;8.75;76.20;102089.25;5077689;27;45396;-66
2022/03/02 03:17:50;;;;;;;;;62.67;49.33;;;;;8.72;76.29;102087.50;5078135;27;45447;-66
2022/03/02 03:20:21;;;;;;;;;64.67;49.33;;;;;8.64;76.41;102084.81;5077964;28;45690;-66
2022/03/02 03:22:47;;;;;;;;;65.33;50.67;;;;;8.61;75.97;102083.91;5077990;27;45356;-66
2022/03/02 03:25:13;;;;;;;;;64.00;52.00;;;;;8.63;76.12;102092.69;5077354;28;45475;-66
2022/03/02 03:27:40;;;;;;;;;62.00;48.00;;;;;8.61;76.07;102087.44;5077722;27;45335;-66
2022/03/02 03:30:08;;;;;;;;;64.67;50.67;;;;;8.62;75.36;102085.69;5077754;27;46265;-66
2022/03/02 03:32:34;;;;;;;;;54.67;45.67;;;;;8.56;74.96;102081.25;5077519;27;45541;-66
2022/03/02 03:34:59;;;;;;;;;57.33;46.33;;;;;8.46;75.41;102080.31;5077117;27;45440;-66
2022/03/02 03:37:25;;;;;;;;;60.33;46.33;;;;;8.35;75.92;102067.06;5077863;28;45323;-66
2022/03/02 03:39:51;;;;;;;;;64.00;50.00;;;;;8.39;73.71;102064.47;5077811;27;46776;-66
2022/03/02 03:42:16;;;;;;;;;62.67;49.33;;;;;8.33;74.24;102074.03;5077542;27;45356;-66
2022/03/02 03:44:42;;;;;;;;;62.33;47.67;;;;;8.34;74.45;102075.81;5077332;28;45577;-66
2022/03/02 03:47:08;;;;;;;;;65.00;49.33;;;;;8.28;74.49;102067.88;5077739;27;45362;-66
2022/03/02 03:49:34;;;;;;;;;65.00;49.00;;;;;8.25;74.85;102070.50;5077152;27;45729;-66
2022/03/02 03:51:59;;;;;;;;;68.67;52.67;;;;;8.24;75.08;102060.84;5077408;28;45367;-66
2022/03/02 03:54:25;;;;;;;;;58.67;47.33;;;;;8.21;74.14;102052.97;5076932;28;45748;-66
2022/03/02 03:56:50;;;;;;;;;70.00;51.67;;;;;8.30;74.18;102067.91;5077154;27;45298;-66
2022/03/02 03:59:16;;;;;;;;;66.33;52.00;;;;;8.28;74.83;102061.78;5076787;27;46193;-66
2022/03/02 04:01:41;;;;;;;;;66.33;53.00;;;;;8.28;74.10;102065.28;5077033;27;45382;-66
2022/03/02 04:04:07;;;;;;;;;62.67;49.67;;;;;8.24;74.20;102060.84;5076897;27;45443;-66
2022/03/02 04:06:33;;;;;;;;;69.00;51.00;;;;;8.18;74.99;102050.31;5077576;27;45373;-66
2022/03/02 04:08:58;;;;;;;;;62.00;50.33;;;;;8.23;75.31;102063.47;5076796;27;46006;-66
2022/03/02 04:11:24;;;;;;;;;70.00;52.67;;;;;7.85;75.15;101989.69;5077144;27;45307;-66
2022/03/02 04:13:49;;;;;;;;;65.33;51.67;;;;;8.22;74.16;102051.22;5077264;27;45309;-66
2022/03/02 04:16:15;;;;;;;;;65.67;52.00;;;;;8.23;74.70;102048.59;5077126;27;45609;-66
2022/03/02 04:18:40;;;;;;;;;69.00;51.67;;;;;8.11;74.87;102022.28;5076872;28;46198;-66
2022/03/02 04:21:06;;;;;;;;;68.67;51.00;;;;;8.22;74.85;102039.00;5076784;28;45486;-66
2022/03/02 04:23:31;;;;;;;;;62.33;50.33;;;;;8.25;75.11;102031.13;5077190;28;45418;-66
2022/03/02 04:25:57;;;;;;;;;68.67;51.33;;;;;8.36;75.30;102052.19;5076930;28;45517;-66
2022/03/02 04:28:23;;;;;;;;;64.67;50.00;;;;;8.33;75.07;102046.94;5076831;27;46071;-66
2022/03/02 04:30:48;;;;;;;;;69.00;52.33;;;;;8.33;75.37;102041.69;5076945;27;45540;-66
2022/03/02 04:33:14;;;;;;;;;66.33;50.00;;;;;8.25;74.61;102023.25;5077342;27;45287;-66
2022/03/02 04:35:40;;;;;;;;;71.33;51.33;;;;;8.27;75.65;102023.28;5077391;27;45417;-66
2022/03/02 04:38:06;;;;;;;;;71.00;54.50;;;;;8.36;75.87;102034.72;5076963;27;46313;-66
2022/03/02 04:40:32;;;;;;;;;69.00;50.33;;;;;8.28;76.04;102018.03;5076378;27;45505;-66
2022/03/02 04:42:58;;;;;;;;;70.67;54.33;;;;;8.26;74.70;102021.50;5076583;27;45268;-66
2022/03/02 04:45:27;;;;;;;;;63.33;49.33;;;;;8.24;74.83;102026.75;5076913;27;45149;-66
2022/03/02 04:47:54;;;;;;;;;185.33;168.33;;;;;8.25;75.08;102023.25;5076477;27;45509;-66
2022/03/02 04:50:20;;;;;;;;;52.50;38.50;;;;;8.36;74.43;102037.34;5076721;28;45311;-66
2022/03/02 04:52:47;;;;;;;;;70.33;52.67;;;;;8.34;74.47;102025.94;5076736;27;45284;-66
2022/03/02 04:55:13;;;;;;;;;68.67;51.67;;;;;8.14;73.41;102010.03;5056755;28;45465;-66
2022/03/02 04:57:50;;;;;;;;;65.33;51.00;;;;;8.11;73.88;102006.53;5056236;28;45313;-66
2022/03/02 05:00:19;;;;;;;;;75.50;55.75;;;;;8.18;74.21;102008.34;5075577;28;45216;-66
2022/03/02 05:02:45;;;;;;;;;69.67;52.33;;;;;8.26;72.82;102024.13;5076384;27;45397;-66
2022/03/02 05:05:12;;;;;;;;;68.00;50.67;;;;;8.18;73.86;102018.84;5077018;27;45428;-66
2022/03/02 05:07:39;;;;;;;;;65.00;52.33;;;;;8.08;73.45;101996.03;5076095;28;45468;-66
2022/03/02 05:10:06;;;;;;;;;70.00;53.00;;;;;8.24;74.03;102018.88;5077287;27;45325;-66
2022/03/02 05:12:31;;;;;;;;;66.33;50.00;;;;;8.20;73.37;102009.22;5080089;28;45437;-66
2022/03/02 05:14:57;;;;;;;;;67.00;51.00;;;;;8.13;72.95;101995.19;5079970;27;45524;-66
2022/03/02 05:17:23;;;;;;;;;70.00;52.00;;;;;8.15;73.40;101995.22;5079212;28;46691;-65
2022/03/02 05:19:48;;;;;;;;;70.00;52.33;;;;;8.30;73.55;102018.91;5078913;28;45683;-65
2022/03/02 05:22:14;;;;;;;;;52.00;41.67;;;;;8.21;71.90;102010.13;5079689;27;45477;-66
2022/03/02 05:24:40;;;;;;;;;58.33;49.33;;;;;8.22;72.84;102011.84;5079861;28;45415;-64
2022/03/02 05:27:06;;;;;;;;;67.00;51.00;;;;;8.15;72.69;101995.22;5079920;27;46290;-64
2022/03/02 05:29:31;;;;;;;;;62.00;47.33;;;;;8.19;71.88;102003.09;5079316;27;45437;-65
2022/03/02 05:31:57;;;;;;;;;67.00;52.33;;;;;8.19;71.11;102012.69;5079568;28;45221;-66
2022/03/02 05:34:22;;;;;;;;;70.33;51.00;;;;;8.12;71.56;101993.44;5078460;28;45583;-66
2022/03/02 05:36:48;;;;;;;;;63.67;49.00;;;;;8.12;72.35;102003.06;5079454;28;45425;-66
2022/03/02 05:39:13;;;;;;;;;67.00;50.00;;;;;8.15;71.89;101992.59;5079980;28;45239;-66
2022/03/02 05:41:39;;;;;;;;;63.00;49.33;;;;;8.14;71.75;101985.56;5078387;27;45537;-66
2022/03/02 05:44:07;;;;;;;;;63.33;48.67;;;;;8.18;72.42;101996.09;5079391;27;45404;-67
2022/03/02 05:46:33;;;;;;;;;67.33;50.00;;;;;8.04;73.41;101976.75;5079514;27;45449;-67
2022/03/02 05:48:59;;;;;;;;;61.67;49.00;;;;;8.11;73.87;101985.56;5079023;27;45641;-67
2022/03/02 05:51:25;;;;;;;;;64.00;50.00;;;;;8.15;72.61;101993.44;5079152;27;45420;-67
2022/03/02 05:53:50;;;;;;;;;68.33;52.33;;;;;8.15;72.86;101989.97;5079640;27;45534;-67
2022/03/02 05:56:16;;;;;;;;;70.67;53.00;;;;;8.04;73.80;101960.13;5078257;28;46020;-67
2022/03/02 05:58:41;;;;;;;;;59.67;48.00;;;;;8.02;73.32;101968.00;5079029;27;45344;-67
2022/03/02 06:01:06;;;;;;;;;69.67;50.00;;;;;8.05;73.79;101975.03;5081397;27;45502;-67
2022/03/02 06:03:32;;;;;;;;;67.00;52.33;;;;;8.09;72.71;101982.91;5079098;28;45438;-67
2022/03/02 06:05:58;;;;;;;;;67.33;50.67;;;;;8.05;73.30;101975.03;5077625;27;45588;-66
2022/03/02 06:08:23;;;;;;;;;70.00;52.00;;;;;8.05;73.70;101975.88;5079315;27;45322;-66
2022/03/02 06:10:49;;;;;;;;;60.33;49.33;;;;;8.09;73.98;101974.16;5078958;28;45363;-65
2022/03/02 06:13:15;;;;;;;;;63.00;49.00;;;;;8.09;73.41;101974.16;5078880;27;45403;-66
2022/03/02 06:15:42;;;;;;;;;63.67;48.00;;;;;8.06;73.11;101969.78;5078506;27;46329;-66
2022/03/02 06:18:07;;;;;;;;;67.00;52.33;;;;;8.04;71.79;101963.63;5077997;27;45464;-66
2022/03/02 06:20:33;;;;;;;;;64.00;49.00;;;;;8.19;71.02;101983.84;5078535;27;45315;-66
2022/03/02 06:22:59;;;;;;;;;67.33;50.33;;;;;8.11;70.37;101967.19;5079238;27;45553;-66
2022/03/02 06:25:25;;;;;;;;;64.33;50.67;;;;;8.17;71.56;101978.59;5078754;27;47352;-66
2022/03/02 06:27:51;;;;;;;;;65.33;52.33;;;;;8.12;72.68;101966.34;5078242;27;45439;-66
2022/03/02 06:30:16;;;;;;;;;62.67;48.33;;;;;8.17;72.40;101980.34;5078408;27;45538;-66
2022/03/02 06:32:41;;;;;;;;;69.67;50.67;;;;;8.10;73.36;101968.91;5078563;27;45548;-66
2022/03/02 06:35:07;;;;;;;;;66.00;50.00;;;;;8.16;72.71;101986.44;5078743;27;46409;-66
2022/03/02 06:37:34;;;;;;;;;158.33;143.67;;;;;8.19;73.35;101981.22;5078472;27;45441;-66
2022/03/02 06:40:06;;;;;;;;;79.75;58.25;;;;;8.20;71.75;101988.22;5078468;27;45898;-66
2022/03/02 06:42:52;;;;;;;;;68.00;52.00;;;;;8.22;72.58;101997.00;5078529;27;45897;-66
2022/03/02 06:45:51;;;;;;;;;64.33;48.00;;;;;8.19;72.49;101986.47;5077820;28;45275;-66
2022/03/02 06:48:18;;;;;;;;;63.67;51.00;;;;;8.23;71.13;101983.00;5078064;27;45176;-66
2022/03/02 06:50:45;;;;;;;;;60.67;46.33;;;;;8.13;71.65;101971.59;5078144;27;45483;-66
2022/03/02 06:53:13;;;;;;;;;63.67;52.00;;;;;8.28;72.59;101997.03;5078017;27;45486;-66
2022/03/02 06:55:43;;;;;;;;;66.33;52.67;;;;;8.34;72.38;101998.84;5077810;27;46717;-66
2022/03/02 06:58:10;;;;;;;;;66.00;50.00;;;;;8.37;72.09;102007.59;5078180;28;45338;-66
2022/03/02 07:00:37;;;;;;;;;63.00;50.00;;;;;8.42;71.54;102012.88;5078409;27;45336;-66
2022/03/02 07:03:11;;;;;;;;;62.33;50.00;;;;;8.44;71.79;102018.16;5078609;28;45200;-66
2022/03/02 07:05:39;;;;;;;;;62.33;49.33;;;;;8.32;71.33;101990.06;5077547;27;46712;-66
2022/03/02 07:08:05;;;;;;;;;61.00;49.00;;;;;8.43;71.73;102008.50;5078079;27;45269;-66
2022/03/02 07:10:36;;;;;;;;;65.67;49.67;;;;;8.49;71.29;102011.19;5078369;27;45299;-66
2022/03/02 07:13:05;;;;;;;;;64.33;48.33;;;;;8.49;71.33;102008.56;5078022;27;45340;-66
2022/03/02 07:15:32;;;;;;;;;57.67;46.67;;;;;8.49;71.76;102008.56;5077968;27;46307;-66
2022/03/02 07:18:02;;;;;;;;;62.00;50.33;;;;;8.47;70.78;101999.84;5077387;27;45417;-66
2022/03/02 07:20:28;;;;;;;;;69.00;51.67;;;;;8.60;72.00;102011.28;5077682;27;45443;-66
2022/03/02 07:22:55;;;;;;;;;67.33;49.67;;;;;8.52;71.30;101999.00;5078254;27;45193;-66
2022/03/02 07:25:24;;;;;;;;;64.33;47.33;;;;;8.61;70.52;102015.66;5077709;28;46188;-66
2022/03/02 07:27:50;;;;;;;;;70.00;52.00;;;;;8.63;70.63;102013.94;5077860;27;45363;-66
2022/03/02 07:30:16;;;;;;;;;64.00;48.33;;;;;8.60;69.44;102009.53;5078008;28;45397;-65
2022/03/02 07:32:45;;;;;;;;;60.00;47.33;;;;;8.68;68.31;102005.22;5076940;27;45330;-66
2022/03/02 07:35:12;;;;;;;;;56.33;42.67;;;;;8.65;67.49;101993.78;5077648;27;46340;-66
2022/03/02 07:37:38;;;;;;;;;63.33;46.67;;;;;8.67;67.79;101989.41;5077346;27;45288;-66
2022/03/02 07:40:05;;;;;;;;;56.67;47.00;;;;;8.77;66.67;101998.22;5077752;27;45418;-66
2022/03/02 07:42:31;;;;;;;;;63.67;45.33;;;;;8.83;64.50;101996.53;5077798;28;45395;-66
2022/03/02 07:44:58;;;;;;;;;61.33;48.00;;;;;8.86;64.84;101993.91;5077707;27;45391;-66
2022/03/02 07:47:24;;;;;;;;;61.00;45.00;;;;;8.96;64.77;101999.19;5077475;27;45341;-66
2022/03/02 07:49:50;;;;;;;;;61.67;48.67;;;;;8.95;63.07;101973.81;5077683;27;45505;-66
2022/03/02 07:52:20;;;;;;;;;60.00;49.33;;;;;9.15;64.22;101992.25;5077610;27;45232;-66
2022/03/02 07:54:52;;;;;;;;;57.33;43.00;;;;;9.13;62.97;101979.09;5077459;27;46098;-66
2022/03/02 07:57:17;;;;;;;;;57.00;45.67;;;;;9.15;61.56;101976.47;5077376;28;45428;-66
2022/03/02 07:59:44;;;;;;;;;54.00;43.67;;;;;9.19;60.34;101973.00;5077706;28;45314;-66
2022/03/02 08:02:12;;;;;;;;;62.67;47.00;;;;;9.18;59.19;101969.50;5077106;27;45416;-66
2022/03/02 08:04:39;;;;;;;;;64.67;47.00;;;;;9.34;58.75;101983.56;5076870;27;47143;-66
2022/03/02 08:07:05;;;;;;;;;60.67;46.67;;;;;9.50;59.34;101987.09;5077403;27;45227;-66
2022/03/02 08:09:31;;;;;;;;;61.33;45.00;;;;;9.50;58.93;101978.34;5076832;27;45470;-66
2022/03/02 08:12:01;;;;;;;;;57.00;45.00;;;;;9.65;58.22;101995.88;5077338;28;45235;-65
2022/03/02 08:14:27;;;;;;;;;54.00;43.67;;;;;9.70;57.43;101991.50;5077214;28;45447;-66
2022/03/02 08:16:54;;;;;;;;;55.67;43.00;;;;;9.79;57.57;101988.88;5077168;27;45417;-66
2022/03/02 08:19:20;;;;;;;;;55.67;44.00;;;;;9.86;55.68;101997.63;5077274;27;45244;-65
2022/03/02 08:21:54;;;;;;;;;52.33;42.00;;;;;9.87;55.03;101986.25;5077185;27;45156;-66
2022/03/02 08:24:20;;;;;;;;;54.67;42.67;;;;;9.87;54.28;101979.22;5075748;28;46896;-66
2022/03/02 08:26:49;;;;;;;;;49.67;38.67;;;;;9.88;53.37;101966.97;5076752;27;45533;-65
2022/03/02 08:29:16;;;;;;;;;54.00;41.67;;;;;9.97;53.31;101974.84;5077070;27;45425;-66
2022/03/02 08:31:43;;;;;;;;;51.00;39.00;;;;;10.00;54.17;101982.72;5077089;28;45319;-66
2022/03/02 08:34:09;;;;;;;;;60.33;42.00;;;;;9.94;52.17;101982.75;5076078;27;46443;-66
2022/03/02 08:36:36;;;;;;;;;53.67;38.67;;;;;9.92;53.04;101972.22;5074643;28;47209;-66
2022/03/02 08:39:08;;;;;;;;;50.67;35.00;;;;;9.82;52.84;101952.06;5076180;27;45498;-66
2022/03/02 08:41:35;;;;;;;;;52.33;39.33;;;;;9.86;52.11;101953.81;5076821;27;45300;-66
2022/03/02 08:44:01;;;;;;;;;41.33;32.00;;;;;9.92;52.04;101972.22;5077398;28;45613;-66
2022/03/02 08:46:27;;;;;;;;;49.00;35.00;;;;;9.80;50.70;101958.19;5080249;27;45465;-66
2022/03/02 08:48:53;;;;;;;;;46.00;34.67;;;;;9.83;50.73;101968.69;5080121;27;45464;-66
2022/03/02 08:51:23;;;;;;;;;54.33;36.00;;;;;9.86;51.95;101976.59;5080454;28;45378;-66
2022/03/02 08:53:50;;;;;;;;;47.00;39.00;;;;;9.81;51.34;101971.34;5080108;27;46434;-66
2022/03/02 08:56:16;;;;;;;;;48.33;38.67;;;;;9.75;51.12;101958.19;5080279;27;45337;-66
2022/03/02 08:58:43;;;;;;;;;44.00;35.00;;;;;9.83;50.04;101977.50;5079862;27;45884;-66
2022/03/02 09:01:11;;;;;;;;;45.67;37.00;;;;;9.82;50.52;101974.88;5080127;27;45378;-66
2022/03/02 09:03:43;;;;;;;;;46.67;37.33;;;;;9.84;51.15;101973.09;5080151;27;46595;-66
2022/03/02 09:06:10;;;;;;;;;54.00;38.67;;;;;9.85;49.69;101969.59;5079623;27;45438;-66
2022/03/02 09:08:36;;;;;;;;;40.00;35.67;;;;;9.92;51.18;101971.34;5079935;27;45577;-66
2022/03/02 09:11:02;;;;;;;;;50.67;36.67;;;;;9.83;51.41;101956.44;5080384;27;45383;-66
2022/03/02 09:13:28;;;;;;;;;41.67;35.67;;;;;9.88;51.35;101962.56;5079623;28;46523;-66
2022/03/02 09:15:54;;;;;;;;;38.67;34.67;;;;;9.84;50.38;101949.44;5079902;27;45402;-66
2022/03/02 09:18:19;;;;;;;;;45.33;36.00;;;;;9.92;50.64;101961.69;5078713;28;45390;-66
2022/03/02 09:20:47;;;;;;;;;57.00;43.33;;;;;9.92;51.11;101963.47;5080187;28;45453;-66
2022/03/02 09:23:12;;;;;;;;;51.67;37.00;;;;;9.92;51.13;101960.84;5079202;27;47347;-66
2022/03/02 09:25:38;;;;;;;;;41.67;32.67;;;;;10.03;51.09;101971.34;5079016;28;45430;-66
2022/03/02 09:28:08;;;;;;;;;47.67;36.67;;;;;9.94;52.48;101966.97;5079727;27;45398;-66
2022/03/02 09:30:33;;;;;;;;;43.67;37.33;;;;;9.89;52.14;101951.19;5079978;27;45509;-66
2022/03/02 09:33:00;;;;;;;;;46.33;35.67;;;;;10.06;51.81;101966.06;5079527;27;45503;-66
2022/03/02 09:35:26;;;;;;;;;47.33;38.67;;;;;10.03;51.85;101956.41;5079412;28;45261;-66
2022/03/02 09:37:54;;;;;;;;;42.67;37.00;;;;;10.12;51.55;101955.53;5079390;27;45457;-66
2022/03/02 09:40:22;;;;;;;;;41.33;35.00;;;;;10.27;49.92;101967.81;5079574;27;45368;-66
2022/03/02 09:42:55;;;;;;;;;41.33;34.67;;;;;10.32;50.55;101963.41;5078671;27;46395;-66
2022/03/02 09:45:21;;;;;;;;;33.00;30.33;;;;;10.35;49.06;101958.16;5078755;27;45364;-66
2022/03/02 09:47:53;;;;;;;;;37.00;32.67;;;;;10.22;45.40;101943.22;5078733;27;45498;-66
2022/03/02 09:50:20;;;;;;;;;39.00;33.33;;;;;10.39;46.95;101953.78;5079817;27;45428;-66
2022/03/02 09:52:51;;;;;;;;;39.33;34.33;;;;;10.43;47.14;101951.13;5079381;27;45438;-66
2022/03/02 09:55:21;;;;;;;;;42.67;31.67;;;;;10.50;45.65;101954.63;5078566;27;45363;-66
2022/03/02 09:57:49;;;;;;;;;40.00;31.33;;;;;10.57;48.49;101950.19;5079406;27;45264;-66
2022/03/02 10:00:18;;;;;;;;;47.00;37.00;;;;;10.57;47.65;101945.81;5079277;27;45263;-66
2022/03/02 10:02:46;;;;;;;;;43.67;36.33;;;;;10.65;50.52;101937.88;5077605;27;47223;-66
2022/03/02 10:05:16;;;;;;;;;44.00;36.00;;;;;10.81;47.38;101941.34;5078187;28;45469;-66
2022/03/02 10:07:45;;;;;;;;;46.00;36.67;;;;;10.64;48.66;101901.88;5078235;27;45493;-66
2022/03/02 10:10:14;;;;;;;;;48.67;38.67;;;;;10.92;47.15;101944.78;5079186;27;45433;-66
2022/03/02 10:12:40;;;;;;;;;53.33;41.33;;;;;10.99;48.05;101943.00;5078660;27;46485;-66
2022/03/02 10:15:09;;;;;;;;;44.00;36.67;;;;;11.14;47.11;101952.59;5079037;27;45468;-66
2022/03/02 10:17:38;;;;;;;;;52.00;41.00;;;;;11.04;46.72;101935.94;5078905;27;45437;-66
2022/03/02 10:20:09;;;;;;;;;52.33;39.33;;;;;11.19;48.24;101958.69;5079332;27;45294;-66
2022/03/02 10:22:40;;;;;;;;;55.00;42.00;;;;;11.18;48.44;101932.34;5078647;27;46861;-65
2022/03/02 10:25:08;;;;;;;;;55.67;41.33;;;;;11.36;47.13;101944.56;5078622;28;45171;-65
2022/03/02 10:28:06;;;;;;;;;48.00;35.00;;;;;11.36;49.00;101929.59;5078734;27;45816;-65
2022/03/02 10:30:42;;;;;;;;;46.00;35.33;;;;;11.23;47.40;101912.97;5064581;28;45550;-66
2022/03/02 10:33:10;;;;;;;;;46.33;37.67;;;;;11.48;46.18;101934.78;5077997;27;45340;-67
2022/03/02 10:35:39;;;;;;;;;42.67;35.00;;;;;11.48;46.27;101926.84;5078787;28;45288;-67
2022/03/02 10:38:08;;;;;;;;;24.33;24.33;;;;;11.54;44.88;101936.50;5078510;27;45258;-67
2022/03/02 10:40:36;;;;;;;;;41.67;34.00;;;;;11.59;46.21;101923.25;5078813;27;45419;-67
2022/03/02 10:43:09;;;;;;;;;43.00;34.00;;;;;11.75;45.51;101919.63;5077999;27;46735;-67
2022/03/02 10:45:49;;;;;;;;;39.67;33.33;;;;;11.97;45.08;101930.03;5078062;27;45349;-67
2022/03/02 10:48:38;;;;;;;;;39.00;33.33;;;;;11.84;46.04;101879.09;5078508;27;45465;-68
2022/03/02 10:51:06;;;;;;;;;47.67;37.33;;;;;12.08;45.01;101892.94;5078800;27;45445;-68
2022/03/02 10:53:35;;;;;;;;;43.67;34.00;;;;;12.20;44.68;101898.09;5077709;27;45255;-68
2022/03/02 10:56:03;;;;;;;;;42.00;32.33;;;;;12.31;44.76;101919.97;5076594;28;45445;-67
2022/03/02 10:58:30;;;;;;;;;41.33;33.33;;;;;12.40;42.05;101912.84;5077870;27;45281;-67
2022/03/02 11:00:56;;;;;;;;;36.33;31.67;;;;;12.51;41.54;101922.38;5078530;27;45195;-68
2022/03/02 11:03:21;;;;;;;;;40.00;34.00;;;;;12.49;42.16;101910.97;5078168;28;46034;-68
2022/03/02 11:05:47;;;;;;;;;41.33;34.33;;;;;12.58;43.60;101911.78;5077557;28;45442;-68
2022/03/02 11:08:12;;;;;;;;;48.67;35.67;;;;;12.69;44.07;101899.25;5078613;27;45273;-68
2022/03/02 11:10:39;;;;;;;;;47.00;32.67;;;;;12.87;44.84;101906.97;5078506;27;45358;-68
2022/03/02 11:13:15;;;;;;;;;41.33;34.33;;;;;13.03;44.57;101919.97;5078095;27;45426;-68
2022/03/02 11:15:52;;;;;;;;;46.33;35.33;;;;;13.01;43.82;101925.28;5078118;27;45401;-68